Pagina principale
METAR-TAF:

METAR-TAF

Aeroporti :

Aeroporto di Gioia del Colle

Gioia del Colle, Italia

latitudine: 40-46N, longitudine: 016-56E, altezza: 345 m

Osservazione

Il bollettino è stato emesso 25 minuti fa, alle 02:55 UTC
Vento 2 kt da sud-ovest
Temperature 6°C
Umidità 87%
Pressione 1019 hPa
Visibilità 10 km o più
nessuna nube inferiore a 1500 m e nessun cumulonembo

METAR: LIBV 240255Z 23002KT CAVOK 06/04 Q1019 RMK SKC VIS MIN 9999 WIND THR32 25003KT WIND THR14 VRB01KT BLU

Ora: 04:20 (03:20 UTC)

Previsione

Il bollettino è stato emesso 1 ora e 20 minuti fa, alle 02:00 UTC
Previsione valida dal 24 alle 03 UTC al 24 alle 12 UTC
Vento 9 kt da nord/nord-ovest
Visibilità 10 km o più
nessuna nube inferiore a 1500 m e nessun cumulonembo

TAF: LIBV 240200Z 2403/2412 34009KT CAVOK

Osservazioni e previsioni meteorologiche di più di 4000 aeroporti (messaggi METAR e TAF).

Le stazioni disponibili sono rappresentate dai dischi gialli e rossi sulla carta.

Puntare il mouse per vedere il nome della stazione.

Clicca sopra per visualizzare le osservazioni e previsioni meteorologiche.

Per cambiare la mappa : fare clic sui pulsanti verdi con una croce nera per ingrandire, il pulsante verde con un trattino per diminuire, o sulla freccia verde per le mappe adiacenti.


METAR-TAF: